createdAt,value
2023-09-06T00:21:05.500Z,97223.84
2023-09-06T00:24:50.898Z,97216.81
2023-09-06T00:28:44.912Z,97212.26
2023-09-06T00:32:29.997Z,97211.67
2023-09-06T00:48:07.175Z,97209.30
2023-09-06T00:52:01.389Z,97207.37
2023-09-06T01:15:32.045Z,97186.88
2023-09-06T01:19:25.598Z,97188.70
2023-09-06T01:23:19.134Z,97185.23
2023-09-06T01:27:12.529Z,97185.14
2023-09-06T01:43:05.218Z,97185.48
2023-09-06T01:46:52.835Z,97189.24
2023-09-06T01:50:25.559Z,97186.52
2023-09-06T01:54:20.171Z,97189.09
2023-09-06T02:39:12.305Z,97178.48
2023-09-06T02:43:06.309Z,97181.67
2023-09-06T02:59:04.806Z,97194.41
2023-09-06T03:02:57.848Z,97196.70
2023-09-06T03:06:49.523Z,97200.20
2023-09-06T03:10:37.072Z,97204.65
2023-09-06T03:37:45.469Z,97203.57
2023-09-06T03:41:38.697Z,97206.46
2023-09-06T03:45:29.636Z,97209.11
2023-09-06T04:01:35.669Z,97216.91
2023-09-06T04:05:25.854Z,97215.76
2023-09-06T04:09:13.209Z,97206.84
2023-09-06T04:13:04.991Z,97207.47
2023-09-06T04:25:06.522Z,97206.50
2023-09-06T04:28:57.513Z,97204.05
2023-09-06T04:32:51.459Z,97203.32
2023-09-06T04:44:46.061Z,97210.44
2023-09-06T04:48:41.639Z,97217.55
2023-09-06T04:52:34.445Z,97220.31
2023-09-06T05:08:23.760Z,97239.29
2023-09-06T05:12:16.853Z,97237.36
2023-09-06T05:16:11.121Z,97241.08
2023-09-06T05:20:33.158Z,97242.84
2023-09-06T05:24:25.509Z,97246.77
2023-09-06T05:28:17.434Z,97238.72
2023-09-06T05:43:54.439Z,97236.85
2023-09-06T05:47:48.734Z,97240.10
2023-09-06T05:51:43.305Z,97242.52
2023-09-06T06:07:26.838Z,97252.73
2023-09-06T06:11:19.483Z,97256.33
2023-09-06T06:27:00.964Z,97255.70
2023-09-06T06:30:53.921Z,97257.09
2023-09-06T06:34:33.325Z,97259.80
2023-09-06T06:38:25.213Z,97255.31
2023-09-06T06:42:04.154Z,97250.01
2023-09-06T06:45:53.580Z,97252.95
2023-09-06T07:01:09.322Z,97251.59
2023-09-06T07:04:52.601Z,97245.45
2023-09-06T07:08:07.697Z,97247.27
2023-09-06T07:11:38.019Z,97248.75
2023-09-06T07:14:40.068Z,97246.08
2023-09-06T07:18:10.563Z,97246.52
2023-09-06T07:21:47.633Z,97238.23
2023-09-06T07:24:45.965Z,97238.54
2023-09-06T07:27:47.364Z,97239.52
2023-09-06T07:30:56.935Z,97239.36
2023-09-06T07:43:21.444Z,97234.22
2023-09-06T07:49:39.427Z,97232.17
2023-09-06T07:52:39.689Z,97233.06
2023-09-06T07:55:32.334Z,97229.05
2023-09-06T07:58:08.137Z,97229.42
2023-09-06T08:00:59.338Z,97224.42
2023-09-06T08:03:48.057Z,97221.02
2023-09-06T08:06:26.357Z,97217.48
2023-09-06T08:09:10.240Z,97218.84
2023-09-06T08:11:58.251Z,97218.36
2023-09-06T08:14:43.822Z,97217.11
2023-09-06T08:17:51.193Z,97213.52
2023-09-06T08:20:33.479Z,97210.80
2023-09-06T08:23:10.576Z,97213.11
2023-09-06T08:25:44.010Z,97216.56
2023-09-06T08:28:20.208Z,97215.28
2023-09-06T08:30:52.248Z,97211.46
2023-09-06T08:33:41.348Z,97211.50
2023-09-06T08:36:11.606Z,97211.08
2023-09-06T08:39:02.101Z,97212.05
2023-09-06T08:41:36.963Z,97213.66
2023-09-06T08:44:19.673Z,97210.11
2023-09-06T08:47:35.297Z,97206.60
2023-09-06T08:50:16.465Z,97207.60
2023-09-06T08:52:50.548Z,97206.39
2023-09-06T08:55:32.628Z,97202.21
2023-09-06T08:58:12.744Z,97199.89
2023-09-06T09:00:48.995Z,97203.45
2023-09-06T09:03:19.459Z,97199.38
2023-09-06T09:05:50.237Z,97199.00
2023-09-06T09:08:40.781Z,97199.09
2023-09-06T09:11:10.714Z,97192.67
2023-09-06T09:13:42.737Z,97190.89
2023-09-06T09:16:14.795Z,97191.45
2023-09-06T09:18:47.057Z,97196.58
2023-09-06T09:21:17.125Z,97193.54
2023-09-06T09:23:59.270Z,97197.49
2023-09-06T09:26:29.798Z,97197.36
2023-09-06T09:29:05.165Z,97197.63
2023-09-06T09:31:35.332Z,97194.17
2023-09-06T09:34:08.706Z,97196.63
2023-09-06T09:36:40.007Z,97197.69
2023-09-06T09:39:15.522Z,97200.25
2023-09-06T09:41:57.451Z,97196.14
2023-09-06T09:44:30.088Z,97198.73
2023-09-06T09:47:28.547Z,97196.08
2023-09-06T09:50:06.593Z,97193.20
2023-09-06T09:52:37.789Z,97190.96
2023-09-06T09:55:10.282Z,97194.13
2023-09-06T09:57:42.161Z,97192.27
2023-09-06T10:00:17.111Z,97190.05
2023-09-06T10:02:49.356Z,97188.36
2023-09-06T10:05:18.767Z,97186.80
2023-09-06T10:07:50.438Z,97188.36
2023-09-06T10:10:21.106Z,97183.20
2023-09-06T10:12:53.588Z,97180.08
2023-09-06T10:15:26.905Z,97180.14
2023-09-06T10:17:58.449Z,97179.23
2023-09-06T10:20:32.018Z,97178.04
2023-09-06T10:23:07.871Z,97175.83
2023-09-06T10:25:50.834Z,97173.87
2023-09-06T10:28:32.841Z,97172.30
2023-09-06T10:31:10.016Z,97174.50
2023-09-06T10:33:43.861Z,97173.08
2023-09-06T10:36:21.369Z,97171.42
2023-09-06T10:38:54.055Z,97171.66
2023-09-06T10:41:28.645Z,97163.27
2023-09-06T10:44:09.426Z,97157.10
2023-09-06T10:46:41.044Z,97160.31
2023-09-06T10:49:15.740Z,97160.33
2023-09-06T10:52:10.215Z,97156.11
2023-09-06T10:54:42.830Z,97155.71
2023-09-06T10:57:17.417Z,97156.59
2023-09-06T10:59:58.284Z,97159.84
2023-09-06T11:02:29.776Z,97155.88
2023-09-06T11:05:11.597Z,97153.56
2023-09-06T11:07:51.143Z,97156.52
2023-09-06T11:10:25.524Z,97151.55
2023-09-06T11:12:59.447Z,97142.13
2023-09-06T11:15:37.778Z,97147.50
2023-09-06T11:18:07.998Z,97138.58
2023-09-06T11:20:39.109Z,97140.84
2023-09-06T11:23:10.432Z,97134.52
2023-09-06T11:25:40.737Z,97131.66
2023-09-06T11:28:21.202Z,97129.02
2023-09-06T11:30:52.621Z,97128.79
2023-09-06T11:33:32.906Z,97126.33
2023-09-06T11:36:05.522Z,97125.14
2023-09-06T11:38:36.903Z,97123.16
2023-09-06T11:41:10.410Z,97116.54
2023-09-06T11:43:44.978Z,97114.34
2023-09-06T11:46:15.970Z,97109.36
2023-09-06T11:48:48.821Z,97102.08
2023-09-06T11:51:25.431Z,97101.44
2023-09-06T11:54:02.614Z,97101.13
2023-09-06T11:56:37.913Z,97096.77
2023-09-06T11:59:16.210Z,97100.30
2023-09-06T12:01:46.694Z,97099.27
2023-09-06T12:04:20.480Z,97097.80
2023-09-06T12:06:53.764Z,97090.95
2023-09-06T12:09:25.554Z,97085.73
2023-09-06T12:11:55.985Z,97083.95
2023-09-06T12:14:26.866Z,97081.25
2023-09-06T12:16:58.651Z,97079.00
2023-09-06T12:19:29.230Z,97078.30
2023-09-06T12:21:59.903Z,97076.70
2023-09-06T12:24:30.399Z,97073.33
2023-09-06T12:27:02.294Z,97072.25
2023-09-06T12:29:32.625Z,97070.16
2023-09-06T12:32:02.396Z,97068.95
2023-09-06T12:34:33.078Z,97070.48
2023-09-06T12:37:04.381Z,97065.54
2023-09-06T12:39:34.165Z,97068.02
2023-09-06T12:42:08.773Z,97067.79
2023-09-06T12:44:39.731Z,97062.64
2023-09-06T12:47:09.469Z,97061.90
2023-09-06T12:49:39.942Z,97063.94
2023-09-06T12:52:12.252Z,97061.26
2023-09-06T12:54:42.720Z,97062.17
2023-09-06T12:57:13.205Z,97059.83
2023-09-06T12:59:43.368Z,97064.36
2023-09-06T13:02:13.614Z,97061.62
2023-09-06T13:04:44.029Z,97054.51
2023-09-06T13:07:14.469Z,97052.34
2023-09-06T13:09:44.838Z,97056.42
2023-09-06T13:12:15.201Z,97053.80
2023-09-06T13:14:45.391Z,97053.18
2023-09-06T13:17:14.536Z,97054.59
2023-09-06T13:19:45.353Z,97054.34
2023-09-06T13:22:15.454Z,97044.63
2023-09-06T13:24:47.128Z,97043.14
2023-09-06T13:27:17.377Z,97044.65
2023-09-06T13:29:47.526Z,97041.33
2023-09-06T13:32:17.806Z,97032.11
2023-09-06T13:34:48.073Z,97030.02
2023-09-06T13:37:20.525Z,97033.52
2023-09-06T13:39:49.594Z,97024.67
2023-09-06T13:42:20.093Z,97019.39
2023-09-06T13:44:49.756Z,97020.04
2023-09-06T13:47:19.901Z,97020.22
2023-09-06T13:49:52.135Z,97013.98
2023-09-06T13:52:22.558Z,97012.19
2023-09-06T13:54:52.784Z,97010.66
2023-09-06T13:57:24.441Z,97009.95
2023-09-06T13:59:59.381Z,97005.70
2023-09-06T14:02:30.173Z,97003.24
2023-09-06T14:05:00.763Z,97006.84
2023-09-06T14:07:34.120Z,97006.13
2023-09-06T14:10:03.050Z,97002.75
2023-09-06T14:12:32.947Z,96994.53
2023-09-06T14:15:03.662Z,96996.27
2023-09-06T14:17:33.983Z,96991.16
2023-09-06T14:20:05.332Z,96994.83
2023-09-06T14:22:35.518Z,96999.40
2023-09-06T14:25:06.154Z,96995.58
2023-09-06T14:27:36.341Z,96993.08
2023-09-06T14:30:07.135Z,96995.01
2023-09-06T14:32:37.380Z,96992.52
2023-09-06T14:35:10.015Z,96989.69
2023-09-06T14:37:40.828Z,96981.12
2023-09-06T14:40:11.634Z,96982.72
2023-09-06T14:42:44.198Z,96977.13
2023-09-06T14:45:14.493Z,96976.10
2023-09-06T14:47:45.083Z,96972.89
2023-09-06T14:50:18.676Z,96976.23
2023-09-06T14:52:53.303Z,96969.98
2023-09-06T14:55:22.338Z,96975.65
2023-09-06T14:57:52.436Z,96973.23
2023-09-06T15:00:23.853Z,96972.81
2023-09-06T15:02:57.222Z,96972.23
2023-09-06T15:05:28.357Z,96969.89
2023-09-06T15:07:58.832Z,96972.34
2023-09-06T15:10:33.592Z,96969.15
2023-09-06T15:13:06.587Z,96970.27
2023-09-06T15:15:35.892Z,96968.03
2023-09-06T15:18:06.700Z,96967.05
2023-09-06T15:20:38.085Z,96966.11
2023-09-06T15:23:07.964Z,96966.79
2023-09-06T15:25:37.445Z,96969.54
2023-09-06T15:28:07.691Z,96963.11
2023-09-06T15:30:37.689Z,96965.30
2023-09-06T15:33:08.087Z,96965.44
2023-09-06T15:35:39.275Z,96964.30
2023-09-06T15:38:09.774Z,96964.27
2023-09-06T15:40:40.493Z,96970.30
2023-09-06T15:43:10.996Z,96971.27
2023-09-06T15:45:40.729Z,96971.74
2023-09-06T15:48:13.770Z,96972.91
2023-09-06T15:50:44.123Z,96973.71
2023-09-06T15:53:14.280Z,96972.48
2023-09-06T15:55:44.698Z,96983.04
2023-09-06T15:58:14.572Z,96983.49
2023-09-06T16:00:44.793Z,96981.42
2023-09-06T16:03:16.559Z,96985.41
2023-09-06T16:05:47.028Z,96985.94
2023-09-06T16:08:17.329Z,96987.42
2023-09-06T16:10:47.431Z,96989.48
2023-09-06T16:13:17.514Z,96990.79
2023-09-06T16:15:50.310Z,96990.54
2023-09-06T16:18:20.655Z,96991.39
2023-09-06T16:20:50.768Z,96990.75
2023-09-06T16:23:20.934Z,96995.17
2023-09-06T16:25:51.037Z,96999.52
2023-09-06T16:28:21.184Z,96996.83
2023-09-06T16:30:51.280Z,96997.48
2023-09-06T16:33:21.475Z,97001.98
2023-09-06T16:35:51.691Z,96999.74
2023-09-06T16:38:22.282Z,97002.60
2023-09-06T16:40:53.128Z,97005.17
2023-09-06T16:43:22.052Z,97009.88
2023-09-06T16:45:52.398Z,97011.20
2023-09-06T16:48:27.670Z,97008.75
2023-09-06T16:50:57.922Z,97013.09
2023-09-06T16:53:28.089Z,97012.27
2023-09-06T16:55:58.648Z,97011.38
2023-09-06T16:58:28.563Z,97013.66
2023-09-06T17:01:00.525Z,97019.27
2023-09-06T17:03:31.385Z,97023.83
2023-09-06T17:06:02.534Z,97029.10
2023-09-06T17:08:35.271Z,97031.91
2023-09-06T17:11:08.419Z,97030.70
2023-09-06T17:13:38.503Z,97032.78
2023-09-06T17:16:08.903Z,97036.27
2023-09-06T17:18:47.866Z,97037.20
2023-09-06T17:21:22.119Z,97037.80
2023-09-06T17:24:03.508Z,97043.89
2023-09-06T17:26:38.030Z,97048.83
2023-09-06T17:29:16.350Z,97043.33
2023-09-06T17:31:50.299Z,97048.40
2023-09-06T17:34:28.063Z,97057.73
2023-09-06T17:37:17.842Z,97058.04
2023-09-06T17:40:00.506Z,97064.84
2023-09-06T17:42:42.992Z,97067.33
2023-09-06T17:45:16.800Z,97073.46
2023-09-06T17:48:24.483Z,97073.36
2023-09-06T17:50:59.452Z,97079.04
2023-09-06T17:53:58.162Z,97080.53
2023-09-06T17:56:41.778Z,97081.80
2023-09-06T17:59:31.951Z,97083.80
2023-09-06T18:02:21.959Z,97089.65
2023-09-06T18:05:03.495Z,97093.47
2023-09-06T18:07:53.949Z,97093.48
2023-09-06T18:10:53.603Z,97104.04
2023-09-06T18:13:46.387Z,97105.61
2023-09-06T18:16:46.863Z,97105.80
2023-09-06T18:19:50.491Z,97107.13
2023-09-06T18:23:08.974Z,97109.38
2023-09-06T18:26:29.594Z,97116.94
2023-09-06T18:29:36.607Z,97119.36
2023-09-06T18:33:04.475Z,97120.53
2023-09-06T18:36:29.823Z,97121.09
2023-09-06T18:39:44.437Z,97122.95
2023-09-06T18:43:18.761Z,97121.34
2023-09-06T18:46:57.907Z,97121.83
2023-09-06T18:50:31.869Z,97125.70
2023-09-06T18:53:45.698Z,97120.58
2023-09-06T19:30:04.601Z,97125.70
2023-09-06T19:33:57.507Z,97125.65
2023-09-06T19:37:50.313Z,97133.86
2023-09-06T19:41:42.876Z,97135.64
2023-09-06T19:53:35.595Z,97134.14
2023-09-06T19:57:27.364Z,97136.39
2023-09-06T20:01:20.387Z,97136.39
2023-09-06T20:21:00.516Z,97153.77
2023-09-06T20:24:53.873Z,97154.71
2023-09-06T20:28:47.501Z,97153.94
2023-09-06T20:44:24.431Z,97157.10
2023-09-06T20:48:09.565Z,97161.21
2023-09-06T20:56:01.986Z,97161.20
2023-09-06T20:59:54.228Z,97159.97
2023-09-06T21:03:45.918Z,97160.30
2023-09-06T21:23:19.132Z,97170.21
2023-09-06T21:27:12.507Z,97171.63
2023-09-06T21:30:40.105Z,97168.92
2023-09-06T21:34:22.608Z,97169.20
2023-09-06T21:38:40.597Z,97163.96
2023-09-06T21:42:33.939Z,97169.37
2023-09-06T21:46:27.575Z,97168.75
2023-09-06T21:50:19.772Z,97171.47
2023-09-06T22:13:35.896Z,97177.02
2023-09-06T22:17:28.102Z,97183.73
2023-09-06T22:40:47.203Z,97188.56
2023-09-06T22:44:39.737Z,97187.18
2023-09-06T22:48:48.008Z,97187.42
2023-09-06T22:52:29.367Z,97182.81
2023-09-06T23:11:52.314Z,97184.91
2023-09-06T23:15:46.346Z,97182.11
2023-09-06T23:39:36.910Z,97172.60
2023-09-06T23:43:31.823Z,97170.44
2023-09-06T23:47:24.978Z,97171.21
2023-09-06T23:51:17.753Z,97170.52
